sensor_id;sensor_type;location;lat;lon;timestamp;pressure;altitude;pressure_sealevel;temperature;humidity
11413;BME280;5762;43.256;26.960;2023-02-13T00:01:02;101679.64;;;0.56;100.00
11413;BME280;5762;43.256;26.960;2023-02-13T00:03:32;101665.08;;;0.48;100.00
11413;BME280;5762;43.256;26.960;2023-02-13T00:06:00;101672.44;;;0.46;100.00
11413;BME280;5762;43.256;26.960;2023-02-13T00:08:29;101670.50;;;0.55;100.00
11413;BME280;5762;43.256;26.960;2023-02-13T00:10:57;101673.67;;;0.54;100.00
11413;BME280;5762;43.256;26.960;2023-02-13T00:13:26;101676.93;;;0.46;100.00
11413;BME280;5762;43.256;26.960;2023-02-13T00:15:55;101674.75;;;0.35;100.00
11413;BME280;5762;43.256;26.960;2023-02-13T00:18:24;101677.52;;;0.37;100.00
11413;BME280;5762;43.256;26.960;2023-02-13T00:21:00;101676.52;;;0.38;100.00
11413;BME280;5762;43.256;26.960;2023-02-13T00:23:29;101681.91;;;0.34;100.00
11413;BME280;5762;43.256;26.960;2023-02-13T00:25:59;101684.42;;;0.46;100.00
11413;BME280;5762;43.256;26.960;2023-02-13T00:28:28;101672.94;;;0.46;100.00
11413;BME280;5762;43.256;26.960;2023-02-13T00:31:03;101669.48;;;0.41;100.00
11413;BME280;5762;43.256;26.960;2023-02-13T00:33:32;101669.10;;;0.33;100.00
11413;BME280;5762;43.256;26.960;2023-02-13T00:36:05;101667.37;;;0.37;100.00
11413;BME280;5762;43.256;26.960;2023-02-13T00:38:34;101663.25;;;0.19;100.00
11413;BME280;5762;43.256;26.960;2023-02-13T00:41:03;101669.69;;;0.25;100.00
11413;BME280;5762;43.256;26.960;2023-02-13T00:43:32;101664.58;;;0.19;100.00
11413;BME280;5762;43.256;26.960;2023-02-13T00:46:01;101669.45;;;0.16;100.00
11413;BME280;5762;43.256;26.960;2023-02-13T00:48:31;101668.05;;;0.05;100.00
11413;BME280;5762;43.256;26.960;2023-02-13T00:51:00;101668.88;;;-0.09;100.00
11413;BME280;5762;43.256;26.960;2023-02-13T00:53:30;101675.78;;;0.00;100.00
11413;BME280;5762;43.256;26.960;2023-02-13T00:55:59;101678.44;;;0.00;100.00
11413;BME280;5762;43.256;26.960;2023-02-13T00:58:27;101680.88;;;-0.13;100.00
11413;BME280;5762;43.256;26.960;2023-02-13T01:00:56;101674.41;;;-0.15;100.00
11413;BME280;5762;43.256;26.960;2023-02-13T01:03:24;101669.12;;;-0.19;100.00
11413;BME280;5762;43.256;26.960;2023-02-13T01:05:54;101668.15;;;-0.22;100.00
11413;BME280;5762;43.256;26.960;2023-02-13T01:08:23;101677.49;;;-0.26;100.00
11413;BME280;5762;43.256;26.960;2023-02-13T01:10:53;101685.73;;;-0.17;100.00
11413;BME280;5762;43.256;26.960;2023-02-13T01:13:22;101682.93;;;-0.19;100.00
11413;BME280;5762;43.256;26.960;2023-02-13T01:15:51;101684.58;;;-0.18;100.00
11413;BME280;5762;43.256;26.960;2023-02-13T01:18:20;101681.36;;;-0.10;100.00
11413;BME280;5762;43.256;26.960;2023-02-13T01:20:58;101681.36;;;-0.10;100.00
11413;BME280;5762;43.256;26.960;2023-02-13T01:23:23;101676.86;;;-0.09;100.00
11413;BME280;5762;43.256;26.960;2023-02-13T01:25:52;101677.33;;;-0.06;100.00
11413;BME280;5762;43.256;26.960;2023-02-13T01:28:21;101685.99;;;-0.08;100.00
11413;BME280;5762;43.256;26.960;2023-02-13T01:30:53;101688.00;;;-0.10;100.00
11413;BME280;5762;43.256;26.960;2023-02-13T01:33:22;101684.95;;;-0.03;100.00
11413;BME280;5762;43.256;26.960;2023-02-13T01:35:51;101683.63;;;-0.03;100.00
11413;BME280;5762;43.256;26.960;2023-02-13T01:38:20;101685.95;;;-0.04;100.00
11413;BME280;5762;43.256;26.960;2023-02-13T01:40:50;101697.11;;;-0.04;100.00
11413;BME280;5762;43.256;26.960;2023-02-13T01:43:20;101698.52;;;0.03;100.00
11413;BME280;5762;43.256;26.960;2023-02-13T01:45:49;101691.36;;;0.03;100.00
11413;BME280;5762;43.256;26.960;2023-02-13T01:48:18;101692.66;;;0.07;100.00
11413;BME280;5762;43.256;26.960;2023-02-13T01:50:48;101692.47;;;0.09;100.00
11413;BME280;5762;43.256;26.960;2023-02-13T01:55:55;101691.11;;;0.13;100.00
11413;BME280;5762;43.256;26.960;2023-02-13T01:58:20;101687.94;;;0.13;100.00
11413;BME280;5762;43.256;26.960;2023-02-13T02:00:49;101689.05;;;0.19;100.00
11413;BME280;5762;43.256;26.960;2023-02-13T02:03:26;101681.83;;;0.09;100.00
11413;BME280;5762;43.256;26.960;2023-02-13T02:05:53;101681.50;;;0.08;100.00
11413;BME280;5762;43.256;26.960;2023-02-13T02:08:23;101687.66;;;0.08;100.00
11413;BME280;5762;43.256;26.960;2023-02-13T02:10:52;101688.63;;;0.11;100.00
11413;BME280;5762;43.256;26.960;2023-02-13T02:13:21;101685.52;;;0.22;100.00
11413;BME280;5762;43.256;26.960;2023-02-13T02:15:50;101687.44;;;0.14;100.00
11413;BME280;5762;43.256;26.960;2023-02-13T02:18:20;101677.80;;;-0.02;100.00
11413;BME280;5762;43.256;26.960;2023-02-13T02:23:29;101682.00;;;-0.08;100.00
11413;BME280;5762;43.256;26.960;2023-02-13T02:33:49;101681.67;;;-0.09;100.00
11413;BME280;5762;43.256;26.960;2023-02-13T02:36:30;101683.37;;;-0.12;100.00
11413;BME280;5762;43.256;26.960;2023-02-13T02:41:56;101684.95;;;-0.03;100.00
11413;BME280;5762;43.256;26.960;2023-02-13T02:44:29;101694.09;;;-0.01;100.00
11413;BME280;5762;43.256;26.960;2023-02-13T02:46:57;101688.95;;;-0.03;100.00
11413;BME280;5762;43.256;26.960;2023-02-13T02:49:41;101689.52;;;-0.11;100.00
11413;BME280;5762;43.256;26.960;2023-02-13T02:52:45;101693.30;;;-0.06;100.00
11413;BME280;5762;43.256;26.960;2023-02-13T02:55:19;101696.70;;;-0.16;100.00
11413;BME280;5762;43.256;26.960;2023-02-13T02:57:54;101697.67;;;-0.13;100.00
11413;BME280;5762;43.256;26.960;2023-02-13T03:00:35;101696.97;;;-0.07;100.00
11413;BME280;5762;43.256;26.960;2023-02-13T03:03:21;101691.78;;;-0.04;100.00
11413;BME280;5762;43.256;26.960;2023-02-13T03:06:17;101688.16;;;-0.07;100.00
11413;BME280;5762;43.256;26.960;2023-02-13T03:08:39;101689.30;;;-0.06;100.00
11413;BME280;5762;43.256;26.960;2023-02-13T03:11:26;101695.63;;;-0.07;100.00
11413;BME280;5762;43.256;26.960;2023-02-13T03:14:12;101694.84;;;-0.11;100.00
11413;BME280;5762;43.256;26.960;2023-02-13T03:16:41;101698.39;;;-0.19;100.00
11413;BME280;5762;43.256;26.960;2023-02-13T03:19:42;101691.45;;;-0.24;100.00
11413;BME280;5762;43.256;26.960;2023-02-13T03:25:06;101694.67;;;-0.32;100.00
11413;BME280;5762;43.256;26.960;2023-02-13T03:33:25;101698.72;;;-0.37;100.00
11413;BME280;5762;43.256;26.960;2023-02-13T03:38:41;101694.28;;;-0.44;100.00
11413;BME280;5762;43.256;26.960;2023-02-13T03:41:05;101693.45;;;-0.45;100.00
11413;BME280;5762;43.256;26.960;2023-02-13T03:46:27;101695.47;;;-0.47;100.00
11413;BME280;5762;43.256;26.960;2023-02-13T03:48:56;101687.34;;;-0.49;100.00
11413;BME280;5762;43.256;26.960;2023-02-13T03:51:45;101691.05;;;-0.58;100.00
11413;BME280;5762;43.256;26.960;2023-02-13T03:54:16;101693.48;;;-0.49;100.00
11413;BME280;5762;43.256;26.960;2023-02-13T03:56:45;101688.97;;;-0.44;100.00
11413;BME280;5762;43.256;26.960;2023-02-13T03:59:32;101694.94;;;-0.42;100.00
11413;BME280;5762;43.256;26.960;2023-02-13T04:02:06;101680.45;;;-0.40;100.00
11413;BME280;5762;43.256;26.960;2023-02-13T04:04:43;101679.30;;;-0.41;100.00
11413;BME280;5762;43.256;26.960;2023-02-13T04:07:09;101679.27;;;-0.37;100.00
11413;BME280;5762;43.256;26.960;2023-02-13T04:09:39;101675.96;;;-0.39;100.00
11413;BME280;5762;43.256;26.960;2023-02-13T04:14:48;101680.92;;;-0.36;100.00
11413;BME280;5762;43.256;26.960;2023-02-13T04:17:24;101681.61;;;-0.38;100.00
11413;BME280;5762;43.256;26.960;2023-02-13T04:19:43;101680.10;;;-0.37;100.00
11413;BME280;5762;43.256;26.960;2023-02-13T04:22:12;101683.30;;;-0.41;100.00
11413;BME280;5762;43.256;26.960;2023-02-13T04:24:41;101687.64;;;-0.44;100.00
11413;BME280;5762;43.256;26.960;2023-02-13T04:27:12;101679.24;;;-0.79;100.00
11413;BME280;5762;43.256;26.960;2023-02-13T04:29:40;101677.16;;;-0.69;100.00
11413;BME280;5762;43.256;26.960;2023-02-13T04:32:09;101680.39;;;-0.54;100.00
11413;BME280;5762;43.256;26.960;2023-02-13T04:34:38;101669.98;;;-0.64;100.00
11413;BME280;5762;43.256;26.960;2023-02-13T04:37:07;101678.27;;;-1.48;100.00
11413;BME280;5762;43.256;26.960;2023-02-13T04:39:36;101680.92;;;-2.36;100.00
11413;BME280;5762;43.256;26.960;2023-02-13T04:42:04;101405.86;;;-4.11;100.00
11413;BME280;5762;43.256;26.960;2023-02-13T04:44:33;101695.17;;;-2.37;100.00
11413;BME280;5762;43.256;26.960;2023-02-13T04:47:02;101689.70;;;-2.35;100.00
11413;BME280;5762;43.256;26.960;2023-02-13T04:49:31;101693.36;;;-2.52;100.00
11413;BME280;5762;43.256;26.960;2023-02-13T04:51:59;101691.20;;;-3.27;100.00
11413;BME280;5762;43.256;26.960;2023-02-13T04:54:28;101691.78;;;-3.50;100.00
11413;BME280;5762;43.256;26.960;2023-02-13T04:56:57;101690.11;;;-3.13;100.00
11413;BME280;5762;43.256;26.960;2023-02-13T04:59:26;101690.11;;;-3.13;100.00
11413;BME280;5762;43.256;26.960;2023-02-13T05:01:55;101693.50;;;-3.32;100.00
11413;BME280;5762;43.256;26.960;2023-02-13T05:04:24;101692.91;;;-3.56;100.00
11413;BME280;5762;43.256;26.960;2023-02-13T05:06:53;101695.33;;;-3.67;100.00
11413;BME280;5762;43.256;26.960;2023-02-13T05:09:21;101692.55;;;-3.61;100.00
11413;BME280;5762;43.256;26.960;2023-02-13T05:11:54;101702.25;;;-3.70;100.00
11413;BME280;5762;43.256;26.960;2023-02-13T05:14:19;101707.59;;;-3.62;100.00
11413;BME280;5762;43.256;26.960;2023-02-13T05:16:48;101710.29;;;-3.54;100.00
11413;BME280;5762;43.256;26.960;2023-02-13T05:19:17;101720.08;;;-3.42;100.00
11413;BME280;5762;43.256;26.960;2023-02-13T05:21:46;101714.72;;;-3.24;100.00
11413;BME280;5762;43.256;26.960;2023-02-13T05:24:31;101724.02;;;-3.16;100.00
11413;BME280;5762;43.256;26.960;2023-02-13T05:26:59;101726.79;;;-3.26;100.00
11413;BME280;5762;43.256;26.960;2023-02-13T05:29:28;101726.66;;;-3.20;100.00
11413;BME280;5762;43.256;26.960;2023-02-13T05:31:57;101724.67;;;-3.18;100.00
11413;BME280;5762;43.256;26.960;2023-02-13T05:34:27;101728.66;;;-3.10;100.00
11413;BME280;5762;43.256;26.960;2023-02-13T05:36:56;101737.28;;;-3.12;100.00
11413;BME280;5762;43.256;26.960;2023-02-13T05:39:25;101730.69;;;-3.00;100.00
11413;BME280;5762;43.256;26.960;2023-02-13T05:41:54;101744.50;;;-2.80;100.00
11413;BME280;5762;43.256;26.960;2023-02-13T05:44:23;101744.16;;;-2.73;100.00
11413;BME280;5762;43.256;26.960;2023-02-13T05:46:51;101749.14;;;-2.78;100.00
11413;BME280;5762;43.256;26.960;2023-02-13T05:49:20;101756.92;;;-2.73;100.00
11413;BME280;5762;43.256;26.960;2023-02-13T05:51:49;101759.77;;;-2.62;100.00
11413;BME280;5762;43.256;26.960;2023-02-13T05:54:18;101758.95;;;-2.58;100.00
11413;BME280;5762;43.256;26.960;2023-02-13T05:56:46;101754.16;;;-2.51;100.00
11413;BME280;5762;43.256;26.960;2023-02-13T05:59:15;101754.33;;;-2.40;100.00
11413;BME280;5762;43.256;26.960;2023-02-13T06:01:43;101754.67;;;-2.31;100.00
11413;BME280;5762;43.256;26.960;2023-02-13T06:04:11;101750.70;;;-2.27;100.00
11413;BME280;5762;43.256;26.960;2023-02-13T06:06:39;101743.59;;;-2.14;100.00
11413;BME280;5762;43.256;26.960;2023-02-13T06:09:08;101744.89;;;-1.98;100.00
11413;BME280;5762;43.256;26.960;2023-02-13T06:11:37;101741.58;;;-1.92;100.00
11413;BME280;5762;43.256;26.960;2023-02-13T06:14:06;101737.26;;;-1.77;100.00
11413;BME280;5762;43.256;26.960;2023-02-13T06:16:34;101741.70;;;-1.65;100.00
11413;BME280;5762;43.256;26.960;2023-02-13T06:19:03;101738.70;;;-1.58;100.00
11413;BME280;5762;43.256;26.960;2023-02-13T06:21:32;101737.18;;;-1.44;100.00
11413;BME280;5762;43.256;26.960;2023-02-13T06:24:02;101740.33;;;-1.41;100.00
11413;BME280;5762;43.256;26.960;2023-02-13T06:26:31;101740.61;;;-1.31;100.00
11413;BME280;5762;43.256;26.960;2023-02-13T06:29:01;101742.75;;;-1.27;100.00
11413;BME280;5762;43.256;26.960;2023-02-13T06:31:30;101746.91;;;-1.28;100.00
11413;BME280;5762;43.256;26.960;2023-02-13T06:33:59;101749.20;;;-1.17;100.00
11413;BME280;5762;43.256;26.960;2023-02-13T06:36:28;101740.09;;;-1.27;100.00
11413;BME280;5762;43.256;26.960;2023-02-13T06:38:56;101742.77;;;-1.35;100.00
11413;BME280;5762;43.256;26.960;2023-02-13T06:41:25;101743.75;;;-1.28;100.00
11413;BME280;5762;43.256;26.960;2023-02-13T06:43:54;101738.29;;;-1.35;100.00
11413;BME280;5762;43.256;26.960;2023-02-13T06:46:23;101739.61;;;-1.30;100.00
11413;BME280;5762;43.256;26.960;2023-02-13T06:48:52;101732.15;;;-1.35;100.00
11413;BME280;5762;43.256;26.960;2023-02-13T06:51:21;101729.49;;;-1.35;100.00
11413;BME280;5762;43.256;26.960;2023-02-13T06:53:49;101725.55;;;-1.39;100.00
11413;BME280;5762;43.256;26.960;2023-02-13T06:56:18;101726.59;;;-1.09;100.00
11413;BME280;5762;43.256;26.960;2023-02-13T06:58:46;101722.51;;;-0.93;100.00
11413;BME280;5762;43.256;26.960;2023-02-13T07:01:15;101725.78;;;-0.83;100.00
11413;BME280;5762;43.256;26.960;2023-02-13T07:03:44;101727.00;;;-0.67;100.00
11413;BME280;5762;43.256;26.960;2023-02-13T07:06:19;101723.27;;;-0.53;100.00
11413;BME280;5762;43.256;26.960;2023-02-13T07:08:48;101735.53;;;-0.48;100.00
11413;BME280;5762;43.256;26.960;2023-02-13T07:11:18;101737.91;;;-0.35;100.00
11413;BME280;5762;43.256;26.960;2023-02-13T07:13:47;101736.14;;;-0.38;100.00
11413;BME280;5762;43.256;26.960;2023-02-13T07:16:16;101739.13;;;-0.37;100.00
11413;BME280;5762;43.256;26.960;2023-02-13T07:18:45;101738.63;;;-0.18;100.00
11413;BME280;5762;43.256;26.960;2023-02-13T07:21:13;101742.36;;;-0.04;100.00
11413;BME280;5762;43.256;26.960;2023-02-13T07:23:41;101738.19;;;-0.03;100.00
11413;BME280;5762;43.256;26.960;2023-02-13T07:26:10;101741.69;;;0.13;100.00
11413;BME280;5762;43.256;26.960;2023-02-13T07:28:39;101737.27;;;0.24;100.00
11413;BME280;5762;43.256;26.960;2023-02-13T07:31:07;101740.44;;;0.38;100.00
11413;BME280;5762;43.256;26.960;2023-02-13T07:33:37;101737.73;;;0.42;100.00
11413;BME280;5762;43.256;26.960;2023-02-13T07:36:05;101735.94;;;0.24;100.00
11413;BME280;5762;43.256;26.960;2023-02-13T07:38:34;101728.27;;;0.25;100.00
11413;BME280;5762;43.256;26.960;2023-02-13T07:41:03;101725.20;;;0.47;100.00
11413;BME280;5762;43.256;26.960;2023-02-13T07:43:32;101729.95;;;0.55;100.00
11413;BME280;5762;43.256;26.960;2023-02-13T07:46:00;101729.23;;;0.72;100.00
11413;BME280;5762;43.256;26.960;2023-02-13T07:48:29;101725.33;;;0.93;100.00
11413;BME280;5762;43.256;26.960;2023-02-13T07:51:03;101725.23;;;1.12;100.00
11413;BME280;5762;43.256;26.960;2023-02-13T07:53:30;101724.77;;;1.09;100.00
11413;BME280;5762;43.256;26.960;2023-02-13T07:55:58;101720.89;;;1.26;100.00
11413;BME280;5762;43.256;26.960;2023-02-13T07:58:27;101725.98;;;1.31;100.00
11413;BME280;5762;43.256;26.960;2023-02-13T08:00:55;101718.05;;;1.59;100.00
11413;BME280;5762;43.256;26.960;2023-02-13T08:03:24;101711.75;;;1.56;100.00
11413;BME280;5762;43.256;26.960;2023-02-13T08:05:52;101714.78;;;1.75;100.00
11413;BME280;5762;43.256;26.960;2023-02-13T08:08:23;101707.03;;;1.90;100.00
11413;BME280;5762;43.256;26.960;2023-02-13T08:10:52;101703.97;;;1.93;100.00
11413;BME280;5762;43.256;26.960;2023-02-13T08:13:38;101704.67;;;1.91;100.00
11413;BME280;5762;43.256;26.960;2023-02-13T08:16:06;101699.95;;;2.04;100.00
11413;BME280;5762;43.256;26.960;2023-02-13T08:18:35;101699.12;;;2.31;100.00
11413;BME280;5762;43.256;26.960;2023-02-13T08:21:04;101698.44;;;2.57;100.00
11413;BME280;5762;43.256;26.960;2023-02-13T08:23:31;101692.03;;;2.69;100.00
11413;BME280;5762;43.256;26.960;2023-02-13T08:26:00;101683.81;;;2.53;100.00
11413;BME280;5762;43.256;26.960;2023-02-13T08:28:28;101691.68;;;2.61;100.00
11413;BME280;5762;43.256;26.960;2023-02-13T08:30:57;101689.48;;;2.78;100.00
11413;BME280;5762;43.256;26.960;2023-02-13T08:33:26;101688.52;;;2.92;100.00
11413;BME280;5762;43.256;26.960;2023-02-13T08:35:55;101683.75;;;3.05;100.00
11413;BME280;5762;43.256;26.960;2023-02-13T08:38:23;101678.51;;;3.08;100.00
11413;BME280;5762;43.256;26.960;2023-02-13T08:40:52;101673.22;;;3.34;100.00
11413;BME280;5762;43.256;26.960;2023-02-13T08:43:21;101673.96;;;3.45;100.00
11413;BME280;5762;43.256;26.960;2023-02-13T08:45:50;101674.55;;;3.47;100.00
11413;BME280;5762;43.256;26.960;2023-02-13T08:48:19;101664.90;;;3.59;100.00
11413;BME280;5762;43.256;26.960;2023-02-13T08:50:47;101673.85;;;3.56;100.00
11413;BME280;5762;43.256;26.960;2023-02-13T08:53:16;101670.86;;;3.55;100.00
11413;BME280;5762;43.256;26.960;2023-02-13T08:55:54;101674.81;;;3.79;100.00
11413;BME280;5762;43.256;26.960;2023-02-13T08:58:23;101669.22;;;3.87;100.00
11413;BME280;5762;43.256;26.960;2023-02-13T09:00:51;101674.69;;;4.02;100.00
11413;BME280;5762;43.256;26.960;2023-02-13T09:03:19;101668.86;;;4.32;100.00
11413;BME280;5762;43.256;26.960;2023-02-13T09:05:47;101666.47;;;4.46;100.00
11413;BME280;5762;43.256;26.960;2023-02-13T09:08:16;101669.38;;;4.38;100.00
11413;BME280;5762;43.256;26.960;2023-02-13T09:10:45;101665.97;;;4.33;100.00
11413;BME280;5762;43.256;26.960;2023-02-13T09:13:14;101661.31;;;4.45;100.00
11413;BME280;5762;43.256;26.960;2023-02-13T09:15:43;101659.67;;;4.44;100.00
11413;BME280;5762;43.256;26.960;2023-02-13T09:18:11;101657.41;;;4.41;100.00
11413;BME280;5762;43.256;26.960;2023-02-13T09:20:40;101658.14;;;4.67;100.00
11413;BME280;5762;43.256;26.960;2023-02-13T09:23:09;101654.84;;;4.88;100.00
11413;BME280;5762;43.256;26.960;2023-02-13T09:25:38;101654.45;;;5.22;100.00
11413;BME280;5762;43.256;26.960;2023-02-13T09:28:06;101652.98;;;5.42;100.00
11413;BME280;5762;43.256;26.960;2023-02-13T09:30:35;101650.87;;;5.51;100.00
11413;BME280;5762;43.256;26.960;2023-02-13T09:33:05;101643.16;;;5.29;100.00
11413;BME280;5762;43.256;26.960;2023-02-13T09:35:35;101648.27;;;5.37;100.00
11413;BME280;5762;43.256;26.960;2023-02-13T09:38:04;101638.83;;;5.44;100.00
11413;BME280;5762;43.256;26.960;2023-02-13T09:43:12;101622.20;;;5.94;100.00
11413;BME280;5762;43.256;26.960;2023-02-13T09:45:42;101621.41;;;5.78;100.00
11413;BME280;5762;43.256;26.960;2023-02-13T09:48:16;101611.92;;;5.76;100.00
11413;BME280;5762;43.256;26.960;2023-02-13T09:50:40;101613.39;;;5.96;100.00
11413;BME280;5762;43.256;26.960;2023-02-13T09:53:10;101608.43;;;6.18;100.00
11413;BME280;5762;43.256;26.960;2023-02-13T09:55:43;101604.61;;;6.08;100.00
11413;BME280;5762;43.256;26.960;2023-02-13T09:58:31;101600.20;;;6.04;100.00
11413;BME280;5762;43.256;26.960;2023-02-13T10:00:52;101595.34;;;6.03;100.00
11413;BME280;5762;43.256;26.960;2023-02-13T10:05:56;101590.71;;;6.29;100.00
11413;BME280;5762;43.256;26.960;2023-02-13T10:08:33;101582.95;;;6.30;100.00
11413;BME280;5762;43.256;26.960;2023-02-13T10:18:49;101563.92;;;6.61;100.00
11413;BME280;5762;43.256;26.960;2023-02-13T10:21:23;101560.62;;;6.68;100.00
11413;BME280;5762;43.256;26.960;2023-02-13T10:23:56;101550.81;;;6.83;100.00
11413;BME280;5762;43.256;26.960;2023-02-13T10:26:24;101553.12;;;6.89;100.00
11413;BME280;5762;43.256;26.960;2023-02-13T10:28:54;101548.33;;;6.91;100.00
11413;BME280;5762;43.256;26.960;2023-02-13T10:31:39;101542.19;;;6.93;100.00
11413;BME280;5762;43.256;26.960;2023-02-13T10:34:16;101542.59;;;7.20;100.00
11413;BME280;5762;43.256;26.960;2023-02-13T10:36:44;101531.19;;;7.38;100.00
11413;BME280;5762;43.256;26.960;2023-02-13T10:41:52;101512.56;;;7.37;100.00
11413;BME280;5762;43.256;26.960;2023-02-13T10:44:25;101511.70;;;7.57;100.00
11413;BME280;5762;43.256;26.960;2023-02-13T10:47:03;101507.58;;;7.66;100.00
11413;BME280;5762;43.256;26.960;2023-02-13T10:49:24;101516.13;;;7.75;100.00
11413;BME280;5762;43.256;26.960;2023-02-13T10:52:01;101510.34;;;7.46;100.00
11413;BME280;5762;43.256;26.960;2023-02-13T10:54:29;101503.03;;;7.55;100.00
11413;BME280;5762;43.256;26.960;2023-02-13T11:02:10;101496.19;;;7.62;100.00
11413;BME280;5762;43.256;26.960;2023-02-13T11:04:32;101496.45;;;7.63;100.00
11413;BME280;5762;43.256;26.960;2023-02-13T11:07:01;101486.05;;;7.55;100.00
11413;BME280;5762;43.256;26.960;2023-02-13T11:09:33;101489.18;;;7.63;100.00
11413;BME280;5762;43.256;26.960;2023-02-13T11:12:21;101484.81;;;7.36;100.00
11413;BME280;5762;43.256;26.960;2023-02-13T11:14:30;101468.71;;;7.51;100.00
11413;BME280;5762;43.256;26.960;2023-02-13T11:17:05;101478.52;;;7.68;100.00
11413;BME280;5762;43.256;26.960;2023-02-13T11:19:39;101478.75;;;7.67;100.00
11413;BME280;5762;43.256;26.960;2023-02-13T11:22:11;101464.81;;;7.70;100.00
11413;BME280;5762;43.256;26.960;2023-02-13T11:24:49;101466.34;;;7.66;100.00
11413;BME280;5762;43.256;26.960;2023-02-13T11:27:12;101460.86;;;7.61;100.00
11413;BME280;5762;43.256;26.960;2023-02-13T11:30:02;101451.68;;;7.73;100.00
11413;BME280;5762;43.256;26.960;2023-02-13T11:34:44;101443.66;;;7.76;100.00
11413;BME280;5762;43.256;26.960;2023-02-13T11:39:45;101442.89;;;7.78;100.00
11413;BME280;5762;43.256;26.960;2023-02-13T11:42:14;101440.88;;;7.99;100.00
11413;BME280;5762;43.256;26.960;2023-02-13T11:44:47;101439.34;;;8.03;100.00
11413;BME280;5762;43.256;26.960;2023-02-13T11:47:13;101437.61;;;7.97;100.00
11413;BME280;5762;43.256;26.960;2023-02-13T11:49:46;101432.03;;;8.01;100.00
11413;BME280;5762;43.256;26.960;2023-02-13T11:52:25;101434.64;;;8.11;100.00
11413;BME280;5762;43.256;26.960;2023-02-13T11:54:57;101428.82;;;8.16;100.00
11413;BME280;5762;43.256;26.960;2023-02-13T11:57:30;101413.37;;;8.26;100.00
11413;BME280;5762;43.256;26.960;2023-02-13T11:59:58;101408.84;;;8.29;100.00
11413;BME280;5762;43.256;26.960;2023-02-13T12:02:29;101406.05;;;8.24;100.00
11413;BME280;5762;43.256;26.960;2023-02-13T12:05:15;101405.22;;;8.23;100.00
11413;BME280;5762;43.256;26.960;2023-02-13T12:07:42;101395.73;;;8.35;100.00
11413;BME280;5762;43.256;26.960;2023-02-13T12:12:54;101391.14;;;8.50;100.00
11413;BME280;5762;43.256;26.960;2023-02-13T12:17:58;101389.69;;;8.59;100.00
11413;BME280;5762;43.256;26.960;2023-02-13T12:20:21;101387.81;;;8.59;100.00
11413;BME280;5762;43.256;26.960;2023-02-13T12:23:10;101383.13;;;8.71;100.00
11413;BME280;5762;43.256;26.960;2023-02-13T12:25:42;101376.59;;;8.67;100.00
11413;BME280;5762;43.256;26.960;2023-02-13T12:28:14;101375.53;;;8.85;100.00
11413;BME280;5762;43.256;26.960;2023-02-13T12:30:42;101380.28;;;8.95;100.00
11413;BME280;5762;43.256;26.960;2023-02-13T12:38:28;101379.21;;;8.96;100.00
11413;BME280;5762;43.256;26.960;2023-02-13T12:40:58;101370.95;;;9.05;100.00
11413;BME280;5762;43.256;26.960;2023-02-13T12:46:13;101373.67;;;9.24;100.00
11413;BME280;5762;43.256;26.960;2023-02-13T12:48:59;101370.13;;;9.43;100.00
11413;BME280;5762;43.256;26.960;2023-02-13T13:12:44;101351.31;;;8.90;100.00
11413;BME280;5762;43.256;26.960;2023-02-13T13:17:59;101350.98;;;9.06;100.00
11413;BME280;5762;43.256;26.960;2023-02-13T13:23:08;101351.92;;;9.33;100.00
11413;BME280;5762;43.256;26.960;2023-02-13T13:25:36;101355.32;;;9.07;100.00
11413;BME280;5762;43.256;26.960;2023-02-13T13:28:07;101353.44;;;9.07;100.00
11413;BME280;5762;43.256;26.960;2023-02-13T13:30:34;101357.12;;;8.99;100.00
11413;BME280;5762;43.256;26.960;2023-02-13T13:33:05;101321.65;;;8.93;100.00
11413;BME280;5762;43.256;26.960;2023-02-13T13:35:33;101337.20;;;8.86;100.00
11413;BME280;5762;43.256;26.960;2023-02-13T13:38:11;101348.37;;;8.75;100.00
11413;BME280;5762;43.256;26.960;2023-02-13T13:40:44;101338.96;;;8.78;100.00
11413;BME280;5762;43.256;26.960;2023-02-13T13:46:05;101336.61;;;9.00;100.00
11413;BME280;5762;43.256;26.960;2023-02-13T13:51:18;101329.30;;;8.98;100.00
11413;BME280;5762;43.256;26.960;2023-02-13T14:07:14;101307.30;;;8.73;100.00
11413;BME280;5762;43.256;26.960;2023-02-13T14:09:43;101307.55;;;8.71;100.00
11413;BME280;5762;43.256;26.960;2023-02-13T14:14:54;101308.05;;;8.68;100.00
11413;BME280;5762;43.256;26.960;2023-02-13T14:22:54;101294.05;;;8.71;100.00
11413;BME280;5762;43.256;26.960;2023-02-13T14:25:28;101290.20;;;8.65;100.00
11413;BME280;5762;43.256;26.960;2023-02-13T14:27:59;101296.38;;;8.63;100.00
11413;BME280;5762;43.256;26.960;2023-02-13T14:30:38;101290.94;;;8.60;100.00
11413;BME280;5762;43.256;26.960;2023-02-13T14:33:04;101290.37;;;8.58;100.00
11413;BME280;5762;43.256;26.960;2023-02-13T14:35:33;101291.63;;;8.53;100.00
11413;BME280;5762;43.256;26.960;2023-02-13T14:38:03;101292.41;;;8.51;100.00
11413;BME280;5762;43.256;26.960;2023-02-13T14:40:51;101285.02;;;8.44;100.00
11413;BME280;5762;43.256;26.960;2023-02-13T14:45:57;101283.54;;;8.53;100.00
11413;BME280;5762;43.256;26.960;2023-02-13T14:48:32;101282.36;;;8.47;100.00
11413;BME280;5762;43.256;26.960;2023-02-13T14:50:55;101282.76;;;8.38;100.00
11413;BME280;5762;43.256;26.960;2023-02-13T14:53:34;101281.86;;;8.33;100.00
11413;BME280;5762;43.256;26.960;2023-02-13T14:56:03;101283.03;;;8.23;100.00
11413;BME280;5762;43.256;26.960;2023-02-13T14:58:30;101278.56;;;8.14;100.00
11413;BME280;5762;43.256;26.960;2023-02-13T15:01:01;101282.67;;;8.02;100.00
11413;BME280;5762;43.256;26.960;2023-02-13T15:03:35;101279.11;;;7.99;100.00
11413;BME280;5762;43.256;26.960;2023-02-13T15:06:02;101286.62;;;7.97;100.00
11413;BME280;5762;43.256;26.960;2023-02-13T15:08:33;101278.66;;;7.88;100.00
11413;BME280;5762;43.256;26.960;2023-02-13T15:11:00;101277.70;;;7.80;100.00